Sharm El Sheikh, Egypt

7:37 AM EET on September 04, 2015 (GMT +0200)
El Tor | | Change Station
CLOSE
Current Station
Airport
Location: El Tor,
Elevation: 46 ft
Nearby Weather Stations

Elev 46 ft 28.21 °N, 33.65 °E | Updated 2 hours ago

Clear
Clear
82 °F
Feels Like 86 °F
N
25
Wind Variable Wind from NW

Today
High -- | Low -- °F
--% Chance of Precip.
Yesterday
High -- | Low -- °F
Precip. -- in
5:22 AM 6:00 PM
Waning Gibbous, 63% visible
Pressure 29.71 in
Visibility -9999.0 miles
Clouds
Heat Index 86 °F
Dew Point 70 °F
Humidity 66%
Rainfall 0.00 in
Snow Depth Not available.
UV Not available.
Pollen Not available.
Air Quality Not available.
Flu Activity Not available.
METAR HETR 040300Z 31022KT CAVOK 28/21 Q1006
Pressure 29.71 in
Visibility -9999.0 miles
Clouds
Heat Index 86 °F
Dew Point 70 °F
Humidity 66%
Rainfall 0.00 in
Snow Depth Not available.
UV Not available.
Pollen Not available.
Air Quality Not available.
Flu Activity Not available.
METAR HETR 040300Z 31022KT CAVOK 28/21 Q1006

10-Day Weather Forecast

×

Almanac

Astronomy

Sep. 04, 2015 Rise Set
Actual Time
Civil Twilight
Nautical Twilight
Astronomical Twilight
Moon
Length of Visible Light
Length of Day
Tomorrow will be .
, % of the Moon is Illuminated

Today's Extremes

Country Highs Country Lows

Community

WunderPhotos

Upload Photos

1,852,129 photos uploaded!

WunderBlogs® & News

Nearby

Air Quality

  Air Quality AQ Index Pollutant
Not available.

Snow Depth

Station Depth Elevation

Earthquake Activity

City Distance Mag. Time & Date
Minimum magnitude displayed is 2.5.

Coastal Water Temperatures

Place Temperature

Stations

Nearby Weather Stations

Station Location Temp. Windchill Dew Point Humidity Wind Precip. Elev Updated Type